createdAt,value
2022-08-03T00:02:21.469Z,4.05
2022-08-03T00:05:24.406Z,3.75
2022-08-03T00:08:27.377Z,3.72
2022-08-03T00:11:30.311Z,3.70
2022-08-03T00:14:33.342Z,3.40
2022-08-03T00:17:52.375Z,3.75
2022-08-03T00:20:56.163Z,3.70
2022-08-03T00:23:59.110Z,3.30
2022-08-03T00:27:02.185Z,3.60
2022-08-03T00:30:05.708Z,4.18
2022-08-03T00:33:10.352Z,3.53
2022-08-03T00:36:13.588Z,3.83
2022-08-03T00:39:16.592Z,3.85
2022-08-03T00:42:19.533Z,3.33
2022-08-03T00:45:24.107Z,3.95
2022-08-03T00:48:32.950Z,4.20
2022-08-03T00:51:36.587Z,3.80
2022-08-03T00:54:39.577Z,3.85
2022-08-03T00:57:43.358Z,3.60
2022-08-03T01:00:46.376Z,3.40
2022-08-03T01:03:49.402Z,3.80
2022-08-03T01:07:15.117Z,4.18
2022-08-03T01:10:21.206Z,4.13
2022-08-03T01:14:01.411Z,3.87
2022-08-03T01:17:36.816Z,4.28
2022-08-03T01:20:40.829Z,4.40
2022-08-03T01:23:54.206Z,4.60
2022-08-03T01:27:04.032Z,4.47
2022-08-03T01:30:07.908Z,4.10
2022-08-03T01:33:18.273Z,4.40
2022-08-03T01:36:24.525Z,4.43
2022-08-03T01:39:27.476Z,3.83
2022-08-03T01:42:30.756Z,3.88
2022-08-03T01:45:34.150Z,3.77
2022-08-03T01:48:38.032Z,3.80
2022-08-03T01:51:58.444Z,3.78
2022-08-03T01:55:06.334Z,3.90
2022-08-03T01:58:09.269Z,4.15
2022-08-03T02:01:13.561Z,3.97
2022-08-03T02:04:18.380Z,4.72
2022-08-03T02:07:21.478Z,4.22
2022-08-03T02:10:34.873Z,4.50
2022-08-03T02:13:38.738Z,4.38
2022-08-03T02:16:41.675Z,4.37
2022-08-03T02:19:44.683Z,4.35
2022-08-03T02:22:47.778Z,4.35
2022-08-03T02:25:54.148Z,4.60
2022-08-03T02:29:02.252Z,4.60
2022-08-03T02:32:05.454Z,4.70
2022-08-03T02:35:13.048Z,4.80
2022-08-03T02:38:16.898Z,5.03
2022-08-03T02:41:28.229Z,5.00
2022-08-03T02:44:34.784Z,4.90
2022-08-03T02:47:54.345Z,5.40
2022-08-03T02:50:58.820Z,5.00
2022-08-03T02:54:03.349Z,5.25
2022-08-03T02:57:07.945Z,5.28
2022-08-03T03:00:11.324Z,5.60
2022-08-03T03:03:14.322Z,5.73
2022-08-03T03:06:18.062Z,5.97
2022-08-03T03:09:22.477Z,5.78
2022-08-03T03:12:25.402Z,6.47
2022-08-03T03:15:28.871Z,5.63
2022-08-03T03:18:32.440Z,6.23
2022-08-03T03:21:35.411Z,5.47
2022-08-03T03:24:38.352Z,5.95
2022-08-03T03:27:41.394Z,5.90
2022-08-03T03:30:44.329Z,6.15
2022-08-03T03:33:47.337Z,6.33
2022-08-03T03:36:50.425Z,6.20
2022-08-03T03:39:56.226Z,6.18
2022-08-03T03:42:59.557Z,5.22
2022-08-03T03:46:02.542Z,5.70
2022-08-03T03:49:07.321Z,5.70
2022-08-03T03:52:10.581Z,5.68
2022-08-03T03:55:17.522Z,6.47
2022-08-03T03:58:21.412Z,5.70
2022-08-03T04:01:27.915Z,5.93
2022-08-03T04:04:50.366Z,5.80
2022-08-03T04:08:29.447Z,5.85
2022-08-03T04:11:38.763Z,5.28
2022-08-03T04:14:41.792Z,5.05
2022-08-03T04:17:44.721Z,5.63
2022-08-03T04:20:48.299Z,5.67
2022-08-03T04:23:53.173Z,6.22
2022-08-03T04:26:56.274Z,5.65
2022-08-03T04:29:59.207Z,5.97
2022-08-03T04:33:02.168Z,5.65
2022-08-03T04:36:08.042Z,5.40
2022-08-03T04:39:27.351Z,5.57
2022-08-03T04:42:30.497Z,5.88
2022-08-03T04:45:33.505Z,5.63
2022-08-03T04:48:36.541Z,6.30
2022-08-03T04:51:40.587Z,5.97
2022-08-03T04:54:48.856Z,6.22
2022-08-03T04:57:54.139Z,6.55
2022-08-03T05:00:57.101Z,6.07
2022-08-03T05:04:00.407Z,5.90
2022-08-03T05:07:11.746Z,6.03
2022-08-03T05:10:16.781Z,5.68
2022-08-03T05:13:19.897Z,4.57
2022-08-03T05:16:22.926Z,4.75
2022-08-03T05:19:25.894Z,4.72
2022-08-03T05:22:28.879Z,4.30
2022-08-03T05:25:31.967Z,4.78
2022-08-03T05:28:34.975Z,4.18
2022-08-03T05:31:37.915Z,4.00
2022-08-03T05:34:40.979Z,4.60
2022-08-03T05:37:54.881Z,3.87
2022-08-03T05:41:21.290Z,4.35
2022-08-03T05:44:21.330Z,5.38
2022-08-03T05:47:24.290Z,5.30
2022-08-03T05:50:27.330Z,4.20
2022-08-03T05:53:32.989Z,4.30
2022-08-03T05:56:35.951Z,4.82
2022-08-03T05:59:39.558Z,4.47
2022-08-03T06:02:57.671Z,4.55
2022-08-03T06:06:00.846Z,4.28
2022-08-03T06:09:03.921Z,5.03
2022-08-03T06:12:09.145Z,5.13
2022-08-03T06:15:15.723Z,6.00
2022-08-03T06:18:18.793Z,5.60
2022-08-03T06:21:21.788Z,4.90
2022-08-03T06:24:25.897Z,4.90
2022-08-03T06:27:29.358Z,5.53
2022-08-03T06:30:40.194Z,5.93
2022-08-03T06:34:31.577Z,6.00
2022-08-03T06:37:06.269Z,5.80
2022-08-03T06:40:10.165Z,5.77
2022-08-03T06:43:17.008Z,6.78
2022-08-03T06:46:20.076Z,5.22
2022-08-03T06:49:23.102Z,6.75
2022-08-03T06:52:38.213Z,5.72
2022-08-03T06:55:42.528Z,6.40
2022-08-03T06:58:46.969Z,6.90
2022-08-03T07:01:50.133Z,6.47
2022-08-03T07:04:53.136Z,6.13
2022-08-03T07:07:57.686Z,6.82
2022-08-03T07:11:00.737Z,9.20
2022-08-03T07:14:04.333Z,7.20
2022-08-03T07:17:11.551Z,7.38
2022-08-03T07:20:15.301Z,7.13
2022-08-03T07:23:19.053Z,6.22
2022-08-03T07:26:22.522Z,7.93
2022-08-03T07:29:25.500Z,6.78
2022-08-03T07:32:31.632Z,7.18
2022-08-03T07:35:34.894Z,7.05
2022-08-03T07:38:38.058Z,7.68
2022-08-03T07:41:41.864Z,6.33
2022-08-03T07:44:44.900Z,6.50
2022-08-03T07:47:53.190Z,6.75
2022-08-03T07:50:56.914Z,7.10
2022-08-03T07:54:00.908Z,7.47
2022-08-03T07:57:04.504Z,6.83
2022-08-03T08:00:14.000Z,7.18
2022-08-03T08:03:16.962Z,8.25
2022-08-03T08:06:19.946Z,6.40
2022-08-03T08:09:23.524Z,6.72
2022-08-03T08:12:26.532Z,6.67
2022-08-03T08:15:29.501Z,6.40
2022-08-03T08:18:32.585Z,7.30
2022-08-03T08:21:53.738Z,7.20
2022-08-03T08:24:59.542Z,7.30
2022-08-03T08:28:29.064Z,6.50
2022-08-03T08:31:27.544Z,6.18
2022-08-03T08:34:30.494Z,6.95
2022-08-03T08:37:35.456Z,7.20
2022-08-03T08:40:38.435Z,7.18
2022-08-03T08:43:41.659Z,6.37
2022-08-03T08:46:44.671Z,6.75
2022-08-03T08:50:08.488Z,7.18
2022-08-03T08:53:17.666Z,6.65
2022-08-03T08:56:25.639Z,6.65
2022-08-03T08:59:48.871Z,6.70
2022-08-03T09:02:51.649Z,6.57
2022-08-03T09:05:56.132Z,6.47
2022-08-03T09:08:59.514Z,6.32
2022-08-03T09:12:35.079Z,6.57
2022-08-03T09:15:25.607Z,6.43
2022-08-03T09:18:32.262Z,8.32
2022-08-03T09:21:35.980Z,9.60
2022-08-03T09:25:23.257Z,7.63
2022-08-03T09:28:57.986Z,8.35
2022-08-03T09:31:47.804Z,8.47
2022-08-03T09:34:55.350Z,6.65
2022-08-03T09:38:13.898Z,7.30
2022-08-03T09:41:20.194Z,7.13
2022-08-03T09:44:29.985Z,7.65
2022-08-03T09:47:34.486Z,5.93
2022-08-03T09:50:56.994Z,5.80
2022-08-03T09:54:04.012Z,5.82
2022-08-03T09:57:07.008Z,6.30
2022-08-03T10:00:14.417Z,4.93
2022-08-03T10:03:17.382Z,5.60
2022-08-03T10:06:20.636Z,5.28
2022-08-03T10:09:23.595Z,5.70
2022-08-03T10:12:26.635Z,5.28
2022-08-03T10:16:21.971Z,5.78
2022-08-03T10:18:53.104Z,5.80
2022-08-03T10:22:12.780Z,5.75
2022-08-03T10:25:15.764Z,5.95
2022-08-03T10:28:20.136Z,5.28
2022-08-03T10:31:23.269Z,4.97
2022-08-03T10:34:33.499Z,5.10
2022-08-03T10:37:42.609Z,5.18
2022-08-03T10:40:59.678Z,5.80
2022-08-03T10:44:19.703Z,5.35
2022-08-03T10:47:22.691Z,4.82
2022-08-03T10:50:25.908Z,5.00
2022-08-03T10:53:39.441Z,5.35
2022-08-03T10:57:03.429Z,5.30
2022-08-03T11:00:18.584Z,5.32
2022-08-03T11:03:21.568Z,5.50
2022-08-03T11:06:27.486Z,5.43
2022-08-03T11:09:44.848Z,4.90
2022-08-03T11:12:47.814Z,5.50
2022-08-03T11:15:53.766Z,5.22
2022-08-03T11:19:05.822Z,5.15
2022-08-03T11:22:09.034Z,5.37
2022-08-03T11:25:53.139Z,5.78
2022-08-03T11:28:36.169Z,5.40
2022-08-03T11:31:49.685Z,5.65
2022-08-03T11:35:16.053Z,5.47
2022-08-03T11:38:24.485Z,4.80
2022-08-03T11:41:45.202Z,4.63
2022-08-03T11:44:49.174Z,4.90
2022-08-03T11:47:58.538Z,5.17
2022-08-03T11:51:05.965Z,4.97
2022-08-03T11:54:08.989Z,4.90
2022-08-03T11:57:12.168Z,5.53
2022-08-03T12:00:30.860Z,4.90
2022-08-03T12:03:34.292Z,4.80
2022-08-03T12:06:55.444Z,5.10
2022-08-03T12:10:11.177Z,5.65
2022-08-03T12:14:44.468Z,5.57
2022-08-03T12:16:37.217Z,5.18
2022-08-03T12:19:43.791Z,5.47
2022-08-03T12:22:46.811Z,5.00
2022-08-03T12:25:49.816Z,5.40
2022-08-03T12:28:52.923Z,5.10
2022-08-03T12:31:56.423Z,5.60
2022-08-03T12:35:01.490Z,6.17
2022-08-03T12:38:05.298Z,5.30
2022-08-03T12:41:16.614Z,5.15
2022-08-03T12:44:28.895Z,5.55
2022-08-03T12:47:58.370Z,5.55
2022-08-03T12:51:11.221Z,5.40
2022-08-03T12:54:24.261Z,5.28
2022-08-03T12:57:41.458Z,5.57
2022-08-03T13:00:56.047Z,5.38
2022-08-03T13:03:59.294Z,5.40
2022-08-03T13:07:06.536Z,5.87
2022-08-03T13:10:31.621Z,5.53
2022-08-03T13:13:40.953Z,5.10
2022-08-03T13:16:43.888Z,5.10
2022-08-03T13:19:47.287Z,5.03
2022-08-03T13:22:50.486Z,4.88
2022-08-03T13:25:55.953Z,5.20
2022-08-03T13:28:59.187Z,4.57
2022-08-03T13:32:03.187Z,4.13
2022-08-03T13:35:07.062Z,4.32
2022-08-03T13:38:10.061Z,4.20
2022-08-03T13:41:15.508Z,4.90
2022-08-03T13:44:29.431Z,4.90
2022-08-03T13:47:33.982Z,4.93
2022-08-03T13:50:42.535Z,4.95
2022-08-03T13:53:45.988Z,4.60
2022-08-03T13:56:52.801Z,4.80
2022-08-03T13:59:55.747Z,5.07
2022-08-03T14:03:13.835Z,5.43
2022-08-03T14:06:17.590Z,4.90
2022-08-03T14:09:20.579Z,4.40
2022-08-03T14:12:23.551Z,4.70
2022-08-03T14:15:26.803Z,4.30
2022-08-03T14:18:33.851Z,4.22
2022-08-03T14:21:37.220Z,3.92
2022-08-03T14:24:40.182Z,4.53
2022-08-03T14:27:43.165Z,4.47
2022-08-03T14:30:46.267Z,5.10
2022-08-03T14:33:49.339Z,4.40
2022-08-03T14:36:52.284Z,4.32
2022-08-03T14:40:00.270Z,4.78
2022-08-03T14:43:03.656Z,5.00
2022-08-03T14:46:07.003Z,4.80
2022-08-03T14:50:31.147Z,4.43
2022-08-03T14:52:33.065Z,4.65
2022-08-03T14:55:38.205Z,4.22
2022-08-03T14:58:42.008Z,4.30
2022-08-03T15:02:06.400Z,4.40
2022-08-03T15:05:08.973Z,4.18
2022-08-03T15:08:11.917Z,4.15
2022-08-03T15:11:14.871Z,4.60
2022-08-03T15:14:17.792Z,4.20
2022-08-03T15:17:25.315Z,3.83
2022-08-03T15:20:40.959Z,4.25
2022-08-03T15:23:46.603Z,4.65
2022-08-03T15:26:50.628Z,4.07
2022-08-03T15:30:09.659Z,4.60
2022-08-03T15:33:13.805Z,4.57
2022-08-03T15:36:17.860Z,4.95
2022-08-03T15:39:20.847Z,4.57
2022-08-03T15:42:23.872Z,5.03
2022-08-03T15:45:28.416Z,4.80
2022-08-03T15:48:38.526Z,4.50
2022-08-03T15:51:41.590Z,4.40
2022-08-03T15:54:44.564Z,4.57
2022-08-03T15:59:09.105Z,4.40
2022-08-03T16:01:15.280Z,4.70
2022-08-03T16:04:20.738Z,4.67
2022-08-03T16:07:42.408Z,4.78
2022-08-03T16:11:05.409Z,4.20
2022-08-03T16:14:31.108Z,4.50
2022-08-03T16:17:31.336Z,4.17
2022-08-03T16:20:35.354Z,4.40
2022-08-03T16:23:39.691Z,4.55
2022-08-03T16:26:46.419Z,4.68
2022-08-03T16:29:49.426Z,4.68
2022-08-03T16:32:52.417Z,4.70
2022-08-03T16:35:55.509Z,4.73
2022-08-03T16:38:58.506Z,4.60
2022-08-03T16:42:01.872Z,4.75
2022-08-03T16:45:06.117Z,4.80
2022-08-03T16:48:09.110Z,5.13
2022-08-03T16:51:12.067Z,4.63
2022-08-03T16:54:21.057Z,5.18
2022-08-03T16:57:58.262Z,4.90
2022-08-03T17:00:47.999Z,4.85
2022-08-03T17:04:01.870Z,4.43
2022-08-03T17:07:07.011Z,4.67
2022-08-03T17:10:12.887Z,4.80
2022-08-03T17:13:21.687Z,4.93
2022-08-03T17:16:25.422Z,4.53
2022-08-03T17:19:28.853Z,5.00
2022-08-03T17:22:35.948Z,5.30
2022-08-03T17:26:02.139Z,4.90
2022-08-03T17:29:12.596Z,5.18
2022-08-03T17:32:21.484Z,5.15
2022-08-03T17:35:34.440Z,4.77
2022-08-03T17:38:41.748Z,5.10
2022-08-03T17:41:49.852Z,5.00
2022-08-03T17:44:53.650Z,5.03
2022-08-03T17:47:57.077Z,4.82
2022-08-03T17:51:06.757Z,5.00
2022-08-03T17:54:18.356Z,5.00
2022-08-03T17:58:03.223Z,5.43
2022-08-03T18:04:55.515Z,5.22
2022-08-03T18:08:02.544Z,5.20
2022-08-03T18:11:09.685Z,5.73
2022-08-03T18:14:27.179Z,5.20
2022-08-03T18:17:55.804Z,5.82
2022-08-03T18:20:56.950Z,5.40
2022-08-03T18:24:01.828Z,5.43
2022-08-03T18:27:05.353Z,5.40
2022-08-03T18:30:10.004Z,5.55
2022-08-03T18:34:16.432Z,5.53
2022-08-03T18:36:38.938Z,5.80
2022-08-03T18:39:50.229Z,5.50
2022-08-03T18:42:55.795Z,6.43
2022-08-03T18:45:59.467Z,5.85
2022-08-03T18:49:34.187Z,5.65
2022-08-03T18:52:45.902Z,5.57
2022-08-03T18:56:02.216Z,5.73
2022-08-03T18:59:10.423Z,5.70
2022-08-03T19:02:21.364Z,5.20
2022-08-03T19:05:24.796Z,5.90
2022-08-03T19:08:55.573Z,5.65
2022-08-03T19:12:14.334Z,5.47
2022-08-03T19:15:36.360Z,5.90
2022-08-03T19:18:45.886Z,5.78
2022-08-03T19:21:48.941Z,5.82
2022-08-03T19:24:52.859Z,5.70
2022-08-03T19:27:55.998Z,5.93
2022-08-03T19:31:00.366Z,6.17
2022-08-03T19:34:06.167Z,6.28
2022-08-03T19:37:12.321Z,6.75
2022-08-03T19:40:19.817Z,6.70
2022-08-03T19:43:23.786Z,6.60
2022-08-03T19:46:53.445Z,6.37
2022-08-03T19:50:05.756Z,6.07
2022-08-03T19:53:21.669Z,6.15
2022-08-03T19:56:26.169Z,6.13
2022-08-03T19:59:30.312Z,5.80
2022-08-03T20:02:34.329Z,5.90
2022-08-03T20:05:44.914Z,6.32
2022-08-03T20:08:55.191Z,5.22
2022-08-03T20:11:58.904Z,5.63
2022-08-03T20:15:01.944Z,5.13
2022-08-03T20:18:04.943Z,5.17
2022-08-03T20:21:15.192Z,5.32
2022-08-03T20:24:35.865Z,5.78
2022-08-03T20:28:08.259Z,4.95
2022-08-03T20:31:09.483Z,5.23
2022-08-03T20:34:12.533Z,5.00
2022-08-03T20:37:20.542Z,4.60
2022-08-03T20:40:27.380Z,5.05
2022-08-03T20:43:30.758Z,5.60
2022-08-03T20:46:50.353Z,5.37
2022-08-03T20:49:56.898Z,5.37
2022-08-03T20:53:02.617Z,5.20
2022-08-03T20:56:05.978Z,4.57
2022-08-03T20:59:15.030Z,5.32
2022-08-03T21:02:29.636Z,5.17
2022-08-03T21:05:48.413Z,5.13
2022-08-03T21:09:00.045Z,5.70
2022-08-03T21:12:03.946Z,6.82
2022-08-03T21:12:56.257Z,4.90
2022-08-03T21:15:09.757Z,6.00
2022-08-03T21:18:32.768Z,5.90
2022-08-03T21:21:37.282Z,6.27
2022-08-03T21:24:40.829Z,5.95
2022-08-03T21:27:43.830Z,6.50
2022-08-03T21:30:46.863Z,5.47
2022-08-03T21:33:49.835Z,6.23
2022-08-03T21:36:52.787Z,6.03
2022-08-03T21:39:56.016Z,6.00
2022-08-03T21:42:59.031Z,6.90
2022-08-03T21:46:04.308Z,7.03
2022-08-03T21:50:04.096Z,6.53
2022-08-03T21:52:33.826Z,7.13
2022-08-03T21:55:37.693Z,7.00
2022-08-03T21:58:56.227Z,6.20
2022-08-03T22:01:59.207Z,5.65
2022-08-03T22:05:05.218Z,5.80
2022-08-03T22:08:08.971Z,5.90
2022-08-03T22:11:11.961Z,5.60
2022-08-03T22:14:14.895Z,5.18
2022-08-03T22:17:53.664Z,5.20
2022-08-03T22:20:42.114Z,5.20
2022-08-03T22:23:49.471Z,4.63
2022-08-03T22:27:10.767Z,5.45
2022-08-03T22:30:18.269Z,5.30
2022-08-03T22:33:21.231Z,4.40
2022-08-03T22:36:24.285Z,4.87
2022-08-03T22:39:31.010Z,4.70
2022-08-03T22:42:35.259Z,4.57
2022-08-03T22:46:07.094Z,4.70
2022-08-03T22:49:01.116Z,4.90
2022-08-03T22:52:04.196Z,4.93
2022-08-03T22:55:08.885Z,4.30
2022-08-03T22:58:15.452Z,4.82
2022-08-03T23:01:19.964Z,5.07
2022-08-03T23:04:22.916Z,5.80
2022-08-03T23:07:32.180Z,5.30
2022-08-03T23:10:35.178Z,5.13
2022-08-03T23:13:38.134Z,5.22
2022-08-03T23:16:41.953Z,5.20
2022-08-03T23:19:44.941Z,4.85
2022-08-03T23:22:48.235Z,5.23
2022-08-03T23:25:54.357Z,5.27
2022-08-03T23:28:59.232Z,5.50
2022-08-03T23:32:02.387Z,5.47
2022-08-03T23:36:08.916Z,5.32
2022-08-03T23:38:48.832Z,4.97
2022-08-03T23:41:51.804Z,5.30
2022-08-03T23:44:56.662Z,5.95
2022-08-03T23:48:02.352Z,5.75
2022-08-03T23:51:09.785Z,5.20
2022-08-03T23:54:26.626Z,5.57
2022-08-03T23:57:32.037Z,5.63
